Time;durP1;ratioP1;P1;durP2;ratioP2;P2;SDS_P1;SDS_P2;PMS_P1;PMS_P2;Temp;Humidity;BMP_temperature;BMP_pressure;BME280_temperature;BME280_humidity;BME280_pressure;Samples;Min_cycle;Max_cycle;Signal;HPM_P1;HPM_P2
2024/02/02 00:02:08;;;;;;;23.15;4.80;;;;;;;3.67;100.00;102934.44;5072811;28;20032;-44
2024/02/02 00:04:36;;;;;;;21.38;4.40;;;;;;;3.68;100.00;102930.97;5072915;28;20056;-45
2024/02/02 00:07:06;;;;;;;19.25;4.63;;;;;;;3.68;100.00;102930.09;5072986;28;20032;-44
2024/02/02 00:09:35;;;;;;;21.13;4.32;;;;;;;3.70;100.00;102924.00;5072971;28;20044;-44
2024/02/02 00:12:06;;;;;;;18.65;4.82;;;;;;;3.72;100.00;102921.41;5072896;28;20051;-53
2024/02/02 00:14:36;;;;;;;16.27;4.53;;;;;;;3.72;100.00;102930.09;5072187;28;20844;-53
2024/02/02 00:17:05;;;;;;;19.40;5.10;;;;;;;3.73;100.00;102923.13;5072565;28;20557;-53
2024/02/02 00:19:33;;;;;;;21.17;4.47;;;;;;;3.76;100.00;102928.31;5072194;28;20045;-52
2024/02/02 00:22:04;;;;;;;15.55;5.22;;;;;;;3.75;100.00;102938.75;5069587;28;20534;-52
2024/02/02 00:24:33;;;;;;;18.35;4.60;;;;;;;3.74;100.00;102940.50;5069474;28;20048;-52
2024/02/02 00:27:02;;;;;;;17.45;4.45;;;;;;;3.77;100.00;102927.47;5069391;28;20044;-52
2024/02/02 00:29:30;;;;;;;24.52;5.25;;;;;;;3.76;100.00;102904.91;5072629;28;20098;-53
2024/02/02 00:32:00;;;;;;;19.23;5.97;;;;;;;3.76;100.00;102884.06;5072777;28;20086;-53
2024/02/02 00:34:28;;;;;;;19.83;5.15;;;;;;;3.78;100.00;102876.28;5069459;28;20048;-53
2024/02/02 00:36:56;;;;;;;28.60;5.80;;;;;;;3.75;100.00;102877.16;5069704;28;20132;-52
2024/02/02 00:39:24;;;;;;;21.40;5.38;;;;;;;3.77;100.00;102880.59;5072689;28;20123;-52
2024/02/02 00:41:53;;;;;;;20.35;5.55;;;;;;;3.79;100.00;102884.09;5072892;28;20103;-51
2024/02/02 00:44:21;;;;;;;25.40;5.70;;;;;;;3.84;100.00;102895.31;5071966;28;20094;-53
2024/02/02 00:46:49;;;;;;;19.88;5.03;;;;;;;3.84;100.00;102910.09;5071793;28;20048;-51
2024/02/02 00:49:20;;;;;;;20.27;5.22;;;;;;;3.84;100.00;102920.50;5071861;28;20041;-52
2024/02/02 00:51:48;;;;;;;23.73;5.63;;;;;;;3.84;100.00;102907.47;5071011;28;20053;-55
2024/02/02 00:54:17;;;;;;;22.75;6.60;;;;;;;3.86;100.00;102906.59;5068922;28;20062;-55
2024/02/02 00:56:45;;;;;;;22.10;5.35;;;;;;;3.85;100.00;102907.47;5069142;28;20037;-52
2024/02/02 00:59:13;;;;;;;22.73;6.13;;;;;;;3.85;100.00;102904.88;5071125;28;20498;-51
2024/02/02 01:01:42;;;;;;;25.33;5.43;;;;;;;3.86;100.00;102898.78;5072726;28;20079;-51
2024/02/02 01:04:10;;;;;;;18.35;5.95;;;;;;;3.87;100.00;102884.03;5072552;28;20075;-52
2024/02/02 01:06:40;;;;;;;24.33;6.00;;;;;;;3.89;100.00;102877.94;5072001;28;20476;-51
2024/02/02 01:09:10;;;;;;;24.10;5.65;;;;;;;3.91;100.00;102874.47;5072430;28;20040;-52
2024/02/02 01:11:39;;;;;;;22.17;5.88;;;;;;;3.89;100.00;102875.34;5072144;28;20114;-50
2024/02/02 01:14:07;;;;;;;20.08;5.82;;;;;;;3.91;100.00;102877.09;5070621;28;20052;-51
2024/02/02 01:16:35;;;;;;;21.55;6.07;;;;;;;3.91;100.00;102879.69;5066802;28;20049;-52
2024/02/02 01:19:04;;;;;;;21.85;6.55;;;;;;;3.96;100.00;102870.13;5070029;28;20040;-50
2024/02/02 01:21:33;;;;;;;14.93;5.47;;;;;;;3.98;100.00;102873.56;5072303;28;20045;-51
2024/02/02 01:24:03;;;;;;;24.02;6.70;;;;;;;3.95;100.00;102855.38;5073525;28;20049;-51
2024/02/02 01:26:31;;;;;;;18.02;5.97;;;;;;;3.97;100.00;102848.44;5075428;28;20048;-52
2024/02/02 01:28:59;;;;;;;21.65;5.85;;;;;;;3.98;100.00;102851.00;5075453;28;20545;-52
2024/02/02 01:31:27;;;;;;;20.85;5.53;;;;;;;3.99;100.00;102851.88;5075501;28;20052;-52
2024/02/02 01:33:56;;;;;;;22.50;5.80;;;;;;;3.99;100.00;102844.06;5075745;28;20102;-51
2024/02/02 01:36:24;;;;;;;16.40;5.90;;;;;;;4.02;100.00;102841.44;5075779;28;20079;-51
2024/02/02 01:38:54;;;;;;;25.05;7.95;;;;;;;4.01;100.00;102842.31;5075843;28;20068;-50
2024/02/02 01:41:24;;;;;;;21.25;6.28;;;;;;;4.03;100.00;102840.56;5075539;28;20110;-52
2024/02/02 01:43:52;;;;;;;21.45;5.80;;;;;;;4.05;100.00;102837.09;5074266;28;20098;-53
2024/02/02 01:46:21;;;;;;;18.98;5.63;;;;;;;4.05;100.00;102824.06;5070746;28;20466;-49
2024/02/02 01:48:51;;;;;;;23.77;6.45;;;;;;;4.03;100.00;102824.94;5073863;28;20064;-52
2024/02/02 01:51:20;;;;;;;17.20;5.68;;;;;;;4.07;100.00;102822.28;5072453;28;20142;-53
2024/02/02 01:53:48;;;;;;;21.00;6.50;;;;;;;4.07;100.00;102827.50;5072058;28;20110;-51
2024/02/02 01:56:17;;;;;;;17.65;5.78;;;;;;;4.07;100.00;102821.44;5071620;28;20052;-51
2024/02/02 01:58:48;;;;;;;19.27;5.80;;;;;;;4.12;100.00;102814.47;5071936;28;20457;-53
2024/02/02 02:01:16;;;;;;;18.85;5.18;;;;;;;4.17;100.00;102825.72;5070369;28;20048;-52
2024/02/02 02:03:46;;;;;;;22.52;5.53;;;;;;;4.14;100.00;102815.31;5072190;28;20049;-51
2024/02/02 02:06:15;;;;;;;24.25;6.60;;;;;;;4.13;100.00;102811.00;5071876;28;20084;-52
2024/02/02 02:08:43;;;;;;;18.75;5.75;;;;;;;4.20;100.00;102810.06;5074965;28;20044;-53
2024/02/02 02:11:12;;;;;;;21.52;5.63;;;;;;;4.18;100.00;102808.34;5074033;28;20074;-52
2024/02/02 02:13:40;;;;;;;19.17;5.10;;;;;;;4.18;100.00;102808.34;5071722;28;20079;-50
2024/02/02 02:16:10;;;;;;;19.38;5.68;;;;;;;4.19;100.00;102810.94;5072557;28;20083;-53
2024/02/02 02:18:38;;;;;;;21.67;6.57;;;;;;;4.19;100.00;102792.72;5074703;28;20040;-52
2024/02/02 02:21:24;;;;;;;22.33;6.07;;;;;;;4.20;100.00;102802.25;5071015;28;20143;-52
2024/02/02 02:23:56;;;;;;;19.85;6.25;;;;;;;4.21;100.00;102803.09;5071737;28;20071;-51
2024/02/02 02:26:26;;;;;;;24.98;6.15;;;;;;;4.18;100.00;102806.59;5071469;28;20045;-52
2024/02/02 02:28:54;;;;;;;24.48;6.45;;;;;;;4.17;100.00;102814.44;5071108;28;20404;-53
2024/02/02 02:31:22;;;;;;;23.63;5.90;;;;;;;4.19;100.00;102805.72;5072668;28;20040;-52
2024/02/02 02:33:50;;;;;;;20.13;5.47;;;;;;;4.21;100.00;102798.78;5074647;28;20098;-51
2024/02/02 02:36:20;;;;;;;16.80;5.95;;;;;;;4.21;100.00;102796.19;5073242;28;20067;-53
2024/02/02 02:38:52;;;;;;;24.15;6.10;;;;;;;4.22;100.00;102790.06;5074659;28;20501;-51
2024/02/02 02:41:20;;;;;;;18.55;6.35;;;;;;;4.23;100.00;102790.97;5074483;28;20051;-53
2024/02/02 02:43:48;;;;;;;18.83;5.47;;;;;;;4.24;100.00;102782.28;5072966;28;20495;-52
2024/02/02 02:46:19;;;;;;;18.27;6.03;;;;;;;4.23;100.00;102781.38;5073261;28;20127;-53
2024/02/02 02:48:47;;;;;;;26.17;6.72;;;;;;;4.24;100.00;102777.06;5070821;28;20040;-51
2024/02/02 02:51:16;;;;;;;18.10;6.80;;;;;;;4.26;100.00;102770.09;5070934;28;20146;-53
2024/02/02 02:53:44;;;;;;;22.92;6.85;;;;;;;4.26;100.00;102758.81;5071551;28;20059;-53
2024/02/02 02:56:14;;;;;;;21.58;6.90;;;;;;;4.26;100.00;102758.81;5073314;28;20407;-53
2024/02/02 02:58:42;;;;;;;17.17;6.15;;;;;;;4.27;100.00;102760.53;5073527;28;20098;-51
2024/02/02 03:01:10;;;;;;;26.52;7.45;;;;;;;4.23;100.00;102752.75;5074209;28;20079;-51
2024/02/02 03:03:38;;;;;;;20.90;7.55;;;;;;;4.29;100.00;102756.19;5073569;28;20052;-51
2024/02/02 03:06:07;;;;;;;26.60;7.57;;;;;;;4.30;100.00;102755.31;5071326;28;20131;-51
2024/02/02 03:08:35;;;;;;;25.55;7.93;;;;;;;4.28;100.00;102759.66;5069251;28;20060;-51
2024/02/02 03:11:04;;;;;;;19.88;6.63;;;;;;;4.28;100.00;102757.94;5070163;28;20048;-53
2024/02/02 03:13:33;;;;;;;22.95;8.13;;;;;;;4.28;100.00;102747.50;5071181;28;20098;-50
2024/02/02 03:16:02;;;;;;;21.33;8.05;;;;;;;4.30;100.00;102740.53;5073323;28;20052;-53
2024/02/02 03:18:31;;;;;;;20.20;7.75;;;;;;;4.31;100.00;102731.84;5073208;28;20041;-51
2024/02/02 03:20:59;;;;;;;26.05;9.35;;;;;;;4.28;100.00;102731.88;5073874;28;20579;-53
2024/02/02 03:23:27;;;;;;;26.38;8.35;;;;;;;4.26;100.00;102723.19;5070045;28;20052;-51
2024/02/02 03:25:56;;;;;;;20.50;8.38;;;;;;;4.23;100.00;102720.63;5070696;28;20050;-51
2024/02/02 03:28:24;;;;;;;26.35;8.82;;;;;;;4.28;100.00;102710.16;5073526;28;20047;-52
2024/02/02 03:30:53;;;;;;;24.95;8.30;;;;;;;4.25;100.00;102711.03;5070650;28;20040;-50
2024/02/02 03:33:22;;;;;;;19.90;8.32;;;;;;;4.23;100.00;102698.03;5070450;28;20044;-53
2024/02/02 03:35:50;;;;;;;22.10;9.05;;;;;;;4.22;100.00;102704.13;5070182;28;20527;-53
2024/02/02 03:38:18;;;;;;;24.13;8.80;;;;;;;4.24;100.00;102698.91;5072401;28;20044;-52
2024/02/02 03:40:46;;;;;;;24.35;8.45;;;;;;;4.22;100.00;102688.50;5069781;28;20067;-52
2024/02/02 03:43:15;;;;;;;26.65;9.00;;;;;;;4.19;100.00;102701.56;5071057;28;20376;-49
2024/02/02 03:45:43;;;;;;;27.38;8.15;;;;;;;4.21;100.00;102697.19;5073052;28;20045;-50
2024/02/02 03:48:13;;;;;;;26.10;9.00;;;;;;;4.19;100.00;102696.34;5072819;28;20510;-53
2024/02/02 03:50:41;;;;;;;24.73;9.70;;;;;;;4.20;100.00;102698.06;5072999;28;20106;-50
2024/02/02 03:53:09;;;;;;;24.35;9.05;;;;;;;4.16;100.00;102693.78;5073677;28;20422;-53
2024/02/02 03:55:38;;;;;;;22.90;9.02;;;;;;;4.17;100.00;102698.13;5073269;28;20142;-51
2024/02/02 03:58:06;;;;;;;23.05;8.57;;;;;;;4.16;100.00;102692.88;5073332;28;20097;-53
2024/02/02 04:00:34;;;;;;;22.42;9.38;;;;;;;4.17;100.00;102692.91;5072994;28;20048;-52
2024/02/02 04:03:03;;;;;;;26.55;9.20;;;;;;;4.13;100.00;102693.81;5069790;28;20086;-52
2024/02/02 04:05:32;;;;;;;20.95;9.07;;;;;;;4.15;100.00;102693.78;5069905;28;20550;-52
2024/02/02 04:08:01;;;;;;;22.23;9.18;;;;;;;4.15;100.00;102694.63;5073138;28;20495;-53
2024/02/02 04:10:29;;;;;;;22.73;9.30;;;;;;;4.15;100.00;102699.00;5072712;28;20063;-52
2024/02/02 04:12:58;;;;;;;18.33;8.93;;;;;;;4.11;100.00;102692.94;5072672;28;20037;-52
2024/02/02 04:15:28;;;;;;;25.00;8.98;;;;;;;4.14;100.00;102692.06;5072228;28;20041;-52
2024/02/02 04:18:00;;;;;;;19.90;9.00;;;;;;;4.15;100.00;102694.63;5072489;28;20037;-53
2024/02/02 04:20:29;;;;;;;21.42;8.90;;;;;;;4.15;100.00;102688.59;5071108;28;20049;-53
2024/02/02 04:22:58;;;;;;;24.02;8.70;;;;;;;4.15;100.00;102683.38;5069012;28;20518;-50
2024/02/02 04:25:26;;;;;;;22.05;8.25;;;;;;;4.13;100.00;102678.19;5071364;28;20056;-51
2024/02/02 04:27:55;;;;;;;27.60;9.13;;;;;;;4.11;100.00;102679.91;5072285;28;20443;-51
2024/02/02 04:30:23;;;;;;;26.50;8.77;;;;;;;4.11;100.00;102685.13;5072002;28;20055;-53
2024/02/02 04:32:51;;;;;;;24.35;8.38;;;;;;;4.11;100.00;102679.91;5070917;28;20511;-53
2024/02/02 04:35:20;;;;;;;21.55;8.95;;;;;;;4.11;100.00;102666.03;5068922;28;20040;-53
2024/02/02 04:37:48;;;;;;;23.92;8.93;;;;;;;4.12;100.00;102678.16;5069965;28;20063;-52
2024/02/02 04:40:17;;;;;;;22.08;8.57;;;;;;;4.12;100.00;102691.19;5072407;28;20044;-52
2024/02/02 04:42:47;;;;;;;18.30;7.65;;;;;;;4.10;100.00;102696.41;5071387;28;20055;-53
2024/02/02 04:45:15;;;;;;;18.58;7.82;;;;;;;4.12;100.00;102688.59;5072435;28;20492;-51
2024/02/02 04:47:43;;;;;;;24.80;9.57;;;;;;;4.11;100.00;102676.47;5072143;28;20037;-53
2024/02/02 04:50:12;;;;;;;23.00;8.68;;;;;;;4.10;100.00;102677.34;5069819;28;20041;-53
2024/02/02 04:52:40;;;;;;;21.33;8.05;;;;;;;4.14;100.00;102677.28;5069345;28;20036;-53
2024/02/02 04:55:11;;;;;;;23.83;8.20;;;;;;;4.14;100.00;102671.22;5071191;28;20048;-49
2024/02/02 04:57:41;;;;;;;23.23;8.02;;;;;;;4.14;100.00;102658.19;5069042;28;20048;-52
2024/02/02 05:00:10;;;;;;;23.48;8.20;;;;;;;4.11;100.00;102651.28;5071609;28;20052;-51
2024/02/02 05:02:38;;;;;;;22.85;7.60;;;;;;;4.11;100.00;102640.84;5072684;28;20047;-55
2024/02/02 05:05:07;;;;;;;19.83;7.25;;;;;;;4.12;100.00;102639.09;5071749;28;20388;-53
2024/02/02 05:07:36;;;;;;;22.15;7.30;;;;;;;4.11;100.00;102635.66;5076006;28;20067;-51
2024/02/02 05:10:05;;;;;;;23.48;8.10;;;;;;;4.10;100.00;102643.47;5076181;28;20128;-55
2024/02/02 05:12:34;;;;;;;21.13;7.72;;;;;;;4.10;100.00;102649.53;5076217;28;20522;-55
2024/02/02 05:15:04;;;;;;;21.00;7.85;;;;;;;4.11;100.00;102632.19;5076483;28;20135;-52
2024/02/02 05:17:33;;;;;;;24.50;7.68;;;;;;;4.13;100.00;102630.41;5076119;28;20076;-54
2024/02/02 05:20:02;;;;;;;22.52;7.80;;;;;;;4.10;100.00;102623.50;5075899;28;20045;-54
2024/02/02 05:22:31;;;;;;;19.73;7.50;;;;;;;4.09;100.00;102616.59;5074642;28;20103;-54
2024/02/02 05:24:59;;;;;;;20.27;7.03;;;;;;;4.07;100.00;102615.72;5072015;28;20115;-55
2024/02/02 05:27:28;;;;;;;19.45;6.53;;;;;;;4.07;100.00;102613.97;5072188;28;20056;-53
2024/02/02 05:29:56;;;;;;;19.00;7.45;;;;;;;4.08;100.00;102607.03;5071040;28;20058;-54
2024/02/02 05:32:26;;;;;;;19.48;6.32;;;;;;;4.08;100.00;102604.44;5071553;28;20052;-54
2024/02/02 05:34:54;;;;;;;18.88;7.00;;;;;;;4.07;100.00;102608.75;5072327;28;20040;-55
2024/02/02 05:37:22;;;;;;;18.90;6.20;;;;;;;4.06;100.00;102611.38;5074814;28;20182;-52
2024/02/02 05:39:53;;;;;;;20.88;7.65;;;;;;;4.04;100.00;102605.34;5071824;28;20040;-52
2024/02/02 05:42:21;;;;;;;17.38;7.65;;;;;;;4.05;100.00;102607.94;5074298;28;20147;-54
2024/02/02 05:44:49;;;;;;;23.83;6.75;;;;;;;4.05;100.00;102591.47;5071547;28;20503;-54
2024/02/02 05:47:17;;;;;;;17.95;6.82;;;;;;;4.04;100.00;102597.53;5072213;28;20911;-54
2024/02/02 05:49:47;;;;;;;18.58;6.68;;;;;;;4.04;100.00;102614.00;5075246;28;20048;-53
2024/02/02 05:52:16;;;;;;;22.10;6.70;;;;;;;4.03;100.00;102612.28;5075324;28;20052;-53
2024/02/02 05:54:44;;;;;;;20.20;6.57;;;;;;;4.04;100.00;102608.81;5075498;28;20044;-54
2024/02/02 05:57:12;;;;;;;22.25;7.20;;;;;;;4.02;100.00;102620.97;5075571;28;20040;-53
2024/02/02 05:59:40;;;;;;;20.50;6.70;;;;;;;3.99;100.00;102615.78;5071389;28;20204;-53
2024/02/02 06:02:08;;;;;;;17.58;6.35;;;;;;;4.01;100.00;102605.38;5071801;28;20056;-51
2024/02/02 06:04:36;;;;;;;18.20;6.88;;;;;;;4.01;100.00;102602.78;5073192;28;20098;-51
2024/02/02 06:07:06;;;;;;;19.10;7.35;;;;;;;3.99;100.00;102607.13;5075036;28;20037;-51
2024/02/02 06:09:35;;;;;;;22.45;7.03;;;;;;;3.99;100.00;102607.13;5074676;28;20055;-52
2024/02/02 06:12:03;;;;;;;21.80;7.03;;;;;;;3.98;100.00;102618.41;5072114;28;20040;-54
2024/02/02 06:14:31;;;;;;;18.38;6.15;;;;;;;3.97;100.00;102611.50;5071108;28;20090;-54
2024/02/02 06:17:02;;;;;;;21.77;6.20;;;;;;;3.93;100.00;102609.75;5074904;28;20051;-53
2024/02/02 06:19:31;;;;;;;19.27;6.05;;;;;;;3.94;100.00;102612.38;5074685;28;20045;-51
2024/02/02 06:21:59;;;;;;;19.35;6.10;;;;;;;3.93;100.00;102614.97;5071076;28;20036;-46
2024/02/02 06:24:29;;;;;;;20.80;6.18;;;;;;;3.95;100.00;102621.03;5071520;28;20053;-46
2024/02/02 06:26:57;;;;;;;17.55;5.97;;;;;;;3.93;100.00;102623.66;5074858;28;20452;-46
2024/02/02 06:29:25;;;;;;;13.65;5.50;;;;;;;3.88;100.00;102626.28;5074745;28;20056;-45
2024/02/02 06:31:57;;;;;;;23.03;5.53;;;;;;;3.88;100.00;102622.84;5074077;28;20135;-46
2024/02/02 06:34:28;;;;;;;21.95;5.72;;;;;;;3.89;100.00;102619.38;5074144;28;20044;-45
2024/02/02 06:36:56;;;;;;;16.50;5.63;;;;;;;3.91;100.00;102614.13;5074022;28;20114;-46
2024/02/02 06:39:25;;;;;;;16.52;5.75;;;;;;;3.89;100.00;102615.00;5074304;28;20392;-46
2024/02/02 06:41:54;;;;;;;21.75;5.35;;;;;;;3.88;100.00;102626.28;5074419;28;20044;-45
2024/02/02 06:44:22;;;;;;;20.15;6.07;;;;;;;3.90;100.00;102626.31;5074559;28;20085;-44
2024/02/02 06:46:51;;;;;;;19.58;6.32;;;;;;;3.86;100.00;102620.25;5074536;28;20066;-46
2024/02/02 06:49:19;;;;;;;22.88;6.25;;;;;;;3.85;100.00;102626.31;5074430;28;20131;-45
2024/02/02 06:51:50;;;;;;;24.67;6.47;;;;;;;3.86;100.00;102625.47;5074062;28;20055;-45
2024/02/02 06:54:18;;;;;;;18.73;6.30;;;;;;;3.87;100.00;102623.72;5073319;28;20045;-46
2024/02/02 06:56:47;;;;;;;23.88;6.68;;;;;;;3.87;100.00;102626.31;5071005;28;20037;-45
2024/02/02 06:59:17;;;;;;;18.00;6.25;;;;;;;3.86;100.00;102630.66;5072404;28;20097;-44
2024/02/02 07:01:45;;;;;;;18.55;6.32;;;;;;;3.89;100.00;102630.63;5074440;28;20036;-44
2024/02/02 07:04:15;;;;;;;21.48;5.80;;;;;;;3.89;100.00;102622.81;5069697;28;20051;-45
2024/02/02 07:06:46;;;;;;;22.45;6.35;;;;;;;3.91;100.00;102629.75;5071712;28;20471;-45
2024/02/02 07:09:32;;;;;;;19.88;6.50;;;;;;;3.95;100.00;102613.25;5074262;28;20048;-44
2024/02/02 07:12:02;;;;;;;24.52;6.47;;;;;;;3.97;100.00;102614.94;5073957;28;20040;-45
2024/02/02 07:14:45;;;;;;;21.00;5.60;;;;;;;3.99;100.00;102609.72;5073536;28;20050;-45
2024/02/02 07:17:23;;;;;;;;;;;;;;;4.00;100.00;102611.47;5074708;28;20083;-44
2024/02/02 07:19:52;;;;;;;20.42;6.30;;;;;;;4.05;100.00;102614.88;5073766;28;20014;-45
2024/02/02 07:22:37;;;;;;;19.42;5.55;;;;;;;4.07;100.00;102613.13;5073180;28;20487;-45
2024/02/02 07:25:07;;;;;;;20.95;6.85;;;;;;;4.10;100.00;102609.63;5073964;28;20507;-45
2024/02/02 07:27:49;;;;;;;16.40;5.93;;;;;;;4.10;100.00;102607.88;5073784;28;20127;-45
2024/02/02 07:30:51;;;;;;;19.15;5.95;;;;;;;4.10;100.00;102604.41;5073263;28;20503;-49
2024/02/02 07:33:24;;;;;;;20.23;6.07;;;;;;;4.11;100.00;102600.94;5072939;28;20052;-50
2024/02/02 07:35:55;;;;;;;21.10;5.60;;;;;;;4.09;100.00;102606.16;5068779;28;20515;-50
2024/02/02 07:38:44;;;;;;;19.30;5.60;;;;;;;4.16;100.00;102613.03;5070090;28;20522;-50
2024/02/02 07:41:13;;;;;;;12.32;5.30;;;;;;;4.18;100.00;102616.47;5071518;28;20039;-50
2024/02/02 07:43:42;;;;;;;15.18;5.55;;;;;;;4.22;100.00;102612.94;5072705;28;20547;-46
2024/02/02 07:46:12;;;;;;;19.20;6.50;;;;;;;4.25;100.00;102611.22;5072678;28;20055;-45
2024/02/02 07:48:43;;;;;;;;;;;;;;;4.27;100.00;102609.44;5073675;28;20044;-45
2024/02/02 07:51:12;;;;;;;22.15;6.72;;;;;;;4.36;100.00;102614.56;5072733;28;19986;-47
2024/02/02 07:53:40;;;;;;;26.23;7.28;;;;;;;4.36;100.00;102614.56;5071813;28;20052;-45
2024/02/02 07:56:09;;;;;;;19.48;6.75;;;;;;;4.35;100.00;102618.03;5073585;28;20060;-44
2024/02/02 07:58:39;;;;;;;21.60;6.28;;;;;;;4.37;100.00;102619.75;5073246;28;20052;-45
2024/02/02 08:01:07;;;;;;;26.10;8.20;;;;;;;4.40;100.00;102619.75;5073088;28;20081;-46
2024/02/02 08:03:38;;;;;;;25.10;8.30;;;;;;;4.44;100.00;102617.09;5071518;28;20044;-46
2024/02/02 08:06:07;;;;;;;26.85;8.27;;;;;;;4.47;100.00;102611.84;5073215;28;20044;-46
2024/02/02 08:08:36;;;;;;;23.23;8.45;;;;;;;4.51;100.00;102593.56;5072923;28;20506;-46
2024/02/02 08:11:05;;;;;;;30.65;9.85;;;;;;;4.54;100.00;102597.84;5073002;28;20052;-47
2024/02/02 08:13:33;;;;;;;20.67;8.95;;;;;;;4.57;100.00;102597.84;5072790;28;20041;-45
2024/02/02 08:16:01;;;;;;;31.13;9.57;;;;;;;4.61;100.00;102588.22;5073339;28;20044;-46
2024/02/02 08:18:30;;;;;;;25.85;10.18;;;;;;;4.63;100.00;102589.06;5073175;28;20037;-54
2024/02/02 08:21:02;;;;;;;34.00;11.15;;;;;;;4.70;100.00;102593.31;5072711;28;20618;-53
2024/02/02 08:23:32;;;;;;;27.15;9.82;;;;;;;4.75;100.00;102594.13;5072143;28;20114;-53
2024/02/02 08:26:01;;;;;;;24.73;10.95;;;;;;;4.79;100.00;102585.38;5069705;28;20048;-53
2024/02/02 08:28:29;;;;;;;29.70;10.80;;;;;;;4.83;100.00;102589.69;5070737;28;20102;-53
2024/02/02 08:31:12;;;;;;;35.47;11.23;;;;;;;4.86;100.00;102594.84;5069862;28;20127;-54
2024/02/02 08:33:42;;;;;;;22.42;10.68;;;;;;;4.90;100.00;102595.69;5069047;28;20049;-53
2024/02/02 08:36:12;;;;;;;27.63;10.95;;;;;;;4.90;100.00;102586.09;5069082;28;20356;-52
2024/02/02 08:38:41;;;;;;;28.48;10.85;;;;;;;4.91;100.00;102593.03;5069379;28;20040;-54
2024/02/02 08:41:10;;;;;;;23.23;10.73;;;;;;;4.98;100.00;102583.41;5069009;28;20049;-54
2024/02/02 08:43:39;;;;;;;26.50;10.52;;;;;;;5.02;100.00;102584.22;5069316;28;20044;-54
2024/02/02 08:46:12;;;;;;;25.45;11.07;;;;;;;5.04;100.00;102580.69;5067580;28;20105;-54
2024/02/02 08:48:45;;;;;;;26.10;10.13;;;;;;;5.06;100.00;102575.47;5068916;28;20048;-53
2024/02/02 08:51:46;;;;;;;21.33;9.63;;;;;;;5.11;100.00;102571.03;5069433;28;20110;-54
2024/02/02 08:54:34;;;;;;;23.75;9.18;;;;;;;5.18;100.00;102557.03;5072143;28;20048;-54
2024/02/02 08:57:35;;;;;;;30.23;9.35;;;;;;;5.20;100.00;102563.06;5072266;28;20056;-53
2024/02/02 09:00:13;;;;;;;27.70;9.82;;;;;;;5.21;100.00;102563.97;5069824;28;20380;-54
2024/02/02 09:02:54;;;;;;;24.10;10.43;;;;;;;5.25;100.00;102560.41;5069301;28;20041;-52
2024/02/02 09:05:24;;;;;;;24.27;10.13;;;;;;;5.30;100.00;102552.50;5068418;28;20060;-46
2024/02/02 09:08:09;;;;;;;29.45;9.38;;;;;;;5.33;100.00;102555.06;5070169;28;20044;-54
2024/02/02 09:11:26;;;;;;;26.67;8.98;;;;;;;5.38;100.00;102561.06;5072280;28;20053;-47
2024/02/02 09:14:08;;;;;;;27.52;10.32;;;;;;;5.41;100.00;102572.31;5072793;28;20045;-46
2024/02/02 09:16:45;;;;;;;22.25;11.50;;;;;;;5.47;100.00;102566.16;5072102;28;20049;-49
2024/02/02 09:19:32;;;;;;;24.75;9.30;;;;;;;5.50;100.00;102576.53;5072141;28;20633;-54
2024/02/02 09:22:02;;;;;;;24.35;9.02;;;;;;;5.53;100.00;102579.06;5072032;28;20049;-45
2024/02/02 09:24:41;;;;;;;27.15;10.07;;;;;;;5.55;100.00;102569.50;5070761;28;20052;-54
2024/02/02 09:27:29;;;;;;;25.02;9.38;;;;;;;5.58;100.00;102577.25;5068492;28;20119;-54
2024/02/02 09:30:00;;;;;;;31.15;10.30;;;;;;;5.67;100.00;102583.22;5071332;28;20059;-54
2024/02/02 09:32:29;;;;;;;23.15;9.80;;;;;;;5.65;100.00;102579.78;5071431;28;20068;-53
2024/02/02 09:35:01;;;;;;;27.13;11.13;;;;;;;5.69;100.00;102573.63;5071056;28;20052;-54
2024/02/02 09:37:41;;;;;;;23.17;10.20;;;;;;;5.69;100.00;102565.78;5072376;28;20048;-54
2024/02/02 09:40:43;;;;;;;33.03;10.55;;;;;;;5.71;100.00;102564.88;5072327;28;20406;-54
2024/02/02 09:43:22;;;;;;;26.95;10.90;;;;;;;5.76;100.00;102570.00;5072258;28;20033;-55
2024/02/02 09:46:04;;;;;;;30.33;11.60;;;;;;;5.79;100.00;102556.91;5074804;28;20436;-54
2024/02/02 09:48:49;;;;;;;27.17;11.63;;;;;;;5.84;100.00;102567.28;5075794;28;20072;-54
2024/02/02 09:51:28;;;;;;;24.42;10.68;;;;;;;5.84;100.00;102564.66;5071807;28;20448;-54
2024/02/02 09:54:21;;;;;;;26.95;11.82;;;;;;;5.92;100.00;102562.78;5073963;28;20119;-55
2024/02/02 09:57:01;;;;;;;32.90;11.68;;;;;;;6.00;100.00;102560.91;5075632;28;20043;-53
2024/02/02 09:59:46;;;;;;;31.02;11.13;;;;;;;6.01;100.00;102557.41;5070863;28;20055;-54
2024/02/02 10:02:34;;;;;;;28.17;11.73;;;;;;;6.07;100.00;102554.69;5070348;28;20617;-53
2024/02/02 10:05:13;;;;;;;28.65;11.90;;;;;;;6.10;100.00;102551.16;5071310;28;20045;-54
2024/02/02 10:07:58;;;;;;;32.47;12.25;;;;;;;6.13;100.00;102556.31;5071780;28;20056;-54
2024/02/02 10:10:45;;;;;;;34.10;11.70;;;;;;;6.16;100.00;102550.16;5071313;28;20106;-55
2024/02/02 10:13:26;;;;;;;27.30;11.75;;;;;;;6.20;100.00;102546.59;5071526;28;20049;-55
2024/02/02 10:16:12;;;;;;;37.28;13.02;;;;;;;6.22;100.00;102550.91;5074708;28;20385;-55
2024/02/02 10:19:15;;;;;;;28.52;12.05;;;;;;;6.27;100.00;102563.88;5072061;28;20080;-55
2024/02/02 10:21:59;;;;;;;30.17;12.35;;;;;;;6.31;100.00;102556.84;5056375;28;20057;-55
2024/02/02 10:24:47;;;;;;;28.23;11.02;;;;;;;6.36;100.00;102557.63;5071821;28;20051;-54
2024/02/02 10:27:42;;;;;;;35.70;12.85;;;;;;;6.39;100.00;102547.97;5074921;28;20047;-54
2024/02/02 10:30:23;;;;;;;34.58;13.32;;;;;;;6.44;100.00;102550.47;5073615;28;20087;-55
2024/02/02 10:33:09;;;;;;;37.85;13.50;;;;;;;6.44;100.00;102555.72;5074219;28;20040;-54
2024/02/02 10:35:51;;;;;;;26.42;12.48;;;;;;;6.46;100.00;102561.75;5069549;28;20412;-55
2024/02/02 10:38:31;;;;;;;25.88;12.05;;;;;;;6.52;100.00;102568.63;5071617;28;20056;-55
2024/02/02 10:41:09;;;;;;;26.98;12.85;;;;;;;6.54;100.00;102559.00;5074028;28;20580;-54
2024/02/02 10:43:48;;;;;;;33.20;12.30;;;;;;;6.60;100.00;102561.50;5074978;28;20036;-55
2024/02/02 10:46:29;;;;;;;24.75;11.15;;;;;;;6.61;100.00;102560.56;5074496;28;20136;-55
2024/02/02 10:49:25;;;;;;;24.92;10.82;;;;;;;6.66;100.00;102550.03;5074568;28;20102;-54
2024/02/02 10:52:05;;;;;;;25.80;12.15;;;;;;;6.72;100.00;102542.03;5070819;28;20052;-52
2024/02/02 10:54:48;;;;;;;26.85;12.05;;;;;;;6.77;100.00;102548.03;5072765;28;20076;-55
2024/02/02 10:57:22;;;;;;;;;;;;;;;6.82;100.00;102545.34;5071378;28;20124;-46
2024/02/02 11:00:04;;;;;;;25.60;11.25;;;;;;;6.82;100.00;102538.34;5070286;28;19920;-46
2024/02/02 11:02:41;;;;;;;21.20;11.43;;;;;;;6.87;100.00;102539.09;5074288;28;20044;-46
2024/02/02 11:05:20;;;;;;;25.08;11.05;;;;;;;6.89;100.00;102533.84;5074392;28;20063;-45
2024/02/02 11:07:54;;;;;;;28.25;11.45;;;;;;;6.92;100.00;102533.75;5073998;28;20047;-55
2024/02/02 11:10:25;;;;;;;27.63;12.60;;;;;;;6.93;100.00;102538.09;5073812;28;20498;-55
2024/02/02 11:13:03;;;;;;;28.60;12.05;;;;;;;6.99;100.00;102543.19;5073620;28;20120;-55
2024/02/02 11:15:45;;;;;;;27.13;11.98;;;;;;;6.98;100.00;102533.63;5070647;28;20048;-55
2024/02/02 11:18:31;;;;;;;26.58;11.63;;;;;;;7.02;100.00;102532.66;5070187;28;20048;-55
2024/02/02 11:21:16;;;;;;;22.52;10.90;;;;;;;7.05;100.00;102529.97;5069815;28;20052;-54
2024/02/02 11:23:53;;;;;;;27.25;11.77;;;;;;;7.07;100.00;102525.53;5070476;28;20047;-55
2024/02/02 11:26:26;;;;;;;22.30;11.15;;;;;;;7.13;100.00;102519.34;5070373;28;20056;-53
2024/02/02 11:29:06;;;;;;;27.02;11.82;;;;;;;7.15;100.00;102516.69;5070121;28;20456;-54
2024/02/02 11:31:45;;;;;;;31.55;12.70;;;;;;;7.20;100.00;102518.28;5071969;28;20448;-54
2024/02/02 11:34:25;;;;;;;25.73;11.52;;;;;;;7.19;100.00;102523.56;5069621;28;20094;-54
2024/02/02 11:37:06;;;;;;;30.23;12.23;;;;;;;7.23;100.00;102520.81;5073093;28;20357;-54
2024/02/02 11:39:51;;;;;;;27.55;12.32;;;;;;;7.24;100.00;102526.91;5072980;28;20068;-54
2024/02/02 11:42:23;;;;;;;24.85;12.02;;;;;;;7.30;100.00;102512.81;5070477;28;20040;-55